sensor_id;sensor_type;location;lat;lon;timestamp;pressure;altitude;pressure_sealevel;temperature;humidity
63500;BME280;49654;51.142;14.924;2023-02-14T00:00:29;101235.38;;;6.03;81.09
63500;BME280;49654;51.142;14.924;2023-02-14T00:02:56;101231.88;;;5.90;81.72
63500;BME280;49654;51.142;14.924;2023-02-14T00:05:23;101232.66;;;5.92;81.87
63500;BME280;49654;51.142;14.924;2023-02-14T00:07:50;101222.47;;;5.89;81.92
63500;BME280;49654;51.142;14.924;2023-02-14T00:10:18;101225.28;;;6.00;81.57
63500;BME280;49654;51.142;14.924;2023-02-14T00:12:45;101226.16;;;5.85;80.66
63500;BME280;49654;51.142;14.924;2023-02-14T00:15:12;101214.75;;;5.74;81.41
63500;BME280;49654;51.142;14.924;2023-02-14T00:17:47;101047.84;;;4.80;80.91
63500;BME280;49654;51.142;14.924;2023-02-14T00:20:14;101213.66;;;5.78;80.63
63500;BME280;49654;51.142;14.924;2023-02-14T00:22:42;101216.78;;;5.69;81.10
63500;BME280;49654;51.142;14.924;2023-02-14T00:25:09;101196.53;;;5.63;81.30
63500;BME280;49654;51.142;14.924;2023-02-14T00:27:37;101205.91;;;5.78;80.83
63500;BME280;49654;51.142;14.924;2023-02-14T00:30:06;101210.69;;;5.85;80.54
63500;BME280;49654;51.142;14.924;2023-02-14T00:32:36;101222.47;;;6.17;80.02
63500;BME280;49654;51.142;14.924;2023-02-14T00:35:04;101220.44;;;6.22;79.80
63500;BME280;49654;51.142;14.924;2023-02-14T00:37:31;101186.19;;;6.06;78.91
63500;BME280;49654;51.142;14.924;2023-02-14T00:39:58;101221.44;;;6.20;79.20
63500;BME280;49654;51.142;14.924;2023-02-14T00:42:25;101226.59;;;6.20;79.55
63500;BME280;49654;51.142;14.924;2023-02-14T00:44:53;101222.59;;;6.28;79.60
63500;BME280;49654;51.142;14.924;2023-02-14T00:47:20;101223.09;;;6.21;79.31
63500;BME280;49654;51.142;14.924;2023-02-14T00:49:47;101218.13;;;6.18;79.75
63500;BME280;49654;51.142;14.924;2023-02-14T00:52:14;101216.47;;;6.17;79.87
63500;BME280;49654;51.142;14.924;2023-02-14T00:54:41;101146.03;;;5.88;79.31
63500;BME280;49654;51.142;14.924;2023-02-14T00:57:08;101214.56;;;6.33;79.79
63500;BME280;49654;51.142;14.924;2023-02-14T00:59:35;101210.44;;;6.31;78.79
63500;BME280;49654;51.142;14.924;2023-02-14T01:02:03;101216.97;;;6.36;79.22
63500;BME280;49654;51.142;14.924;2023-02-14T01:04:30;101222.72;;;6.27;79.63
63500;BME280;49654;51.142;14.924;2023-02-14T01:06:57;101215.25;;;6.22;80.02
63500;BME280;49654;51.142;14.924;2023-02-14T01:09:24;101204.69;;;6.13;80.20
63500;BME280;49654;51.142;14.924;2023-02-14T01:11:51;101211.78;;;6.09;80.44
63500;BME280;49654;51.142;14.924;2023-02-14T01:14:18;101206.81;;;6.06;81.11
63500;BME280;49654;51.142;14.924;2023-02-14T01:16:45;101211.03;;;6.07;81.33
63500;BME280;49654;51.142;14.924;2023-02-14T01:19:13;101211.63;;;5.98;81.14
63500;BME280;49654;51.142;14.924;2023-02-14T01:21:40;101200.00;;;6.05;81.43
63500;BME280;49654;51.142;14.924;2023-02-14T01:24:08;101201.31;;;5.84;80.82
63500;BME280;49654;51.142;14.924;2023-02-14T01:26:36;101206.63;;;6.09;80.77
63500;BME280;49654;51.142;14.924;2023-02-14T01:29:03;101202.41;;;6.08;80.62
63500;BME280;49654;51.142;14.924;2023-02-14T01:31:32;101194.84;;;6.05;79.88
63500;BME280;49654;51.142;14.924;2023-02-14T01:34:00;101183.91;;;5.87;80.45
63500;BME280;49654;51.142;14.924;2023-02-14T01:36:31;101170.06;;;5.88;81.12
63500;BME280;49654;51.142;14.924;2023-02-14T01:39:00;101175.97;;;6.05;80.35
63500;BME280;49654;51.142;14.924;2023-02-14T01:41:30;101187.41;;;6.27;79.71
63500;BME280;49654;51.142;14.924;2023-02-14T01:43:59;101163.91;;;6.05;79.80
63500;BME280;49654;51.142;14.924;2023-02-14T01:46:28;101181.56;;;6.11;80.32
63500;BME280;49654;51.142;14.924;2023-02-14T01:48:59;101172.00;;;5.99;80.14
63500;BME280;49654;51.142;14.924;2023-02-14T01:51:29;101174.03;;;6.08;80.67
63500;BME280;49654;51.142;14.924;2023-02-14T01:53:58;101141.34;;;5.80;80.38
63500;BME280;49654;51.142;14.924;2023-02-14T01:56:28;101175.34;;;6.01;80.74
63500;BME280;49654;51.142;14.924;2023-02-14T01:58:58;101158.41;;;5.97;81.02
63500;BME280;49654;51.142;14.924;2023-02-14T02:01:28;101172.28;;;6.09;81.05
63500;BME280;49654;51.142;14.924;2023-02-14T02:03:59;101159.75;;;6.02;80.78
63500;BME280;49654;51.142;14.924;2023-02-14T02:06:33;101151.28;;;5.86;80.88
63500;BME280;49654;51.142;14.924;2023-02-14T02:09:07;101157.47;;;5.84;81.36
63500;BME280;49654;51.142;14.924;2023-02-14T02:11:36;101171.63;;;5.91;81.59
63500;BME280;49654;51.142;14.924;2023-02-14T02:14:03;101176.16;;;6.01;81.62
63500;BME280;49654;51.142;14.924;2023-02-14T02:17:04;101170.25;;;5.85;80.42
63500;BME280;49654;51.142;14.924;2023-02-14T02:20:17;101165.59;;;5.63;81.43
63500;BME280;49654;51.142;14.924;2023-02-14T02:32:47;101171.09;;;5.86;81.75
63500;BME280;49654;51.142;14.924;2023-02-14T02:35:33;101166.56;;;5.89;81.89
63500;BME280;49654;51.142;14.924;2023-02-14T02:38:14;101171.09;;;6.00;81.27
63500;BME280;49654;51.142;14.924;2023-02-14T02:40:46;101165.38;;;6.09;80.46
63500;BME280;49654;51.142;14.924;2023-02-14T02:43:29;101177.16;;;6.13;79.89
63500;BME280;49654;51.142;14.924;2023-02-14T02:46:01;101170.88;;;6.03;80.14
63500;BME280;49654;51.142;14.924;2023-02-14T02:48:53;101172.75;;;5.87;80.55
63500;BME280;49654;51.142;14.924;2023-02-14T02:51:31;101157.66;;;5.81;81.10
63500;BME280;49654;51.142;14.924;2023-02-14T02:54:26;101165.84;;;5.87;81.02
63500;BME280;49654;51.142;14.924;2023-02-14T02:56:58;101142.00;;;5.84;80.48
63500;BME280;49654;51.142;14.924;2023-02-14T02:59:29;101166.97;;;5.97;80.60
63500;BME280;49654;51.142;14.924;2023-02-14T03:02:02;101178.63;;;6.03;80.63
63500;BME280;49654;51.142;14.924;2023-02-14T03:04:31;101172.66;;;5.88;80.93
63500;BME280;49654;51.142;14.924;2023-02-14T03:07:34;101170.38;;;5.84;81.12
63500;BME280;49654;51.142;14.924;2023-02-14T03:10:06;101175.34;;;6.01;80.78
63500;BME280;49654;51.142;14.924;2023-02-14T03:13:09;101172.13;;;5.97;80.32
63500;BME280;49654;51.142;14.924;2023-02-14T03:16:09;101165.63;;;5.90;80.15
63500;BME280;49654;51.142;14.924;2023-02-14T03:18:51;101171.38;;;5.81;80.97
63500;BME280;49654;51.142;14.924;2023-02-14T03:21:26;101169.44;;;5.99;80.11
63500;BME280;49654;51.142;14.924;2023-02-14T03:23:57;101171.00;;;6.01;79.61
63500;BME280;49654;51.142;14.924;2023-02-14T03:26:32;101107.16;;;5.49;79.49
63500;BME280;49654;51.142;14.924;2023-02-14T03:29:07;101167.78;;;5.84;80.32
63500;BME280;49654;51.142;14.924;2023-02-14T03:31:45;101174.19;;;5.91;80.03
63500;BME280;49654;51.142;14.924;2023-02-14T03:34:16;101133.03;;;5.34;79.89
63500;BME280;49654;51.142;14.924;2023-02-14T03:36:49;101111.06;;;5.28;81.17
63500;BME280;49654;51.142;14.924;2023-02-14T03:39:23;101114.00;;;5.36;81.22
63500;BME280;49654;51.142;14.924;2023-02-14T03:41:55;101085.66;;;5.22;81.15
63500;BME280;49654;51.142;14.924;2023-02-14T03:44:25;101139.81;;;5.63;81.24
63500;BME280;49654;51.142;14.924;2023-02-14T03:46:57;101155.25;;;5.77;81.03
63500;BME280;49654;51.142;14.924;2023-02-14T03:49:28;101160.91;;;5.70;81.09
63500;BME280;49654;51.142;14.924;2023-02-14T03:51:59;101159.50;;;5.78;81.15
63500;BME280;49654;51.142;14.924;2023-02-14T03:54:30;101135.97;;;5.42;79.89
63500;BME280;49654;51.142;14.924;2023-02-14T03:57:06;101121.81;;;5.49;80.81
63500;BME280;49654;51.142;14.924;2023-02-14T03:59:34;101045.00;;;4.98;80.82
63500;BME280;49654;51.142;14.924;2023-02-14T04:02:05;101163.47;;;5.70;80.77
63500;BME280;49654;51.142;14.924;2023-02-14T04:04:36;101038.31;;;5.10;80.41
63500;BME280;49654;51.142;14.924;2023-02-14T04:07:09;101109.91;;;5.46;80.08
63500;BME280;49654;51.142;14.924;2023-02-14T04:09:38;101111.41;;;5.36;80.27
63500;BME280;49654;51.142;14.924;2023-02-14T04:12:06;101153.81;;;5.59;79.76
63500;BME280;49654;51.142;14.924;2023-02-14T04:14:33;101118.84;;;5.26;80.14
63500;BME280;49654;51.142;14.924;2023-02-14T04:17:01;101136.69;;;5.58;80.46
63500;BME280;49654;51.142;14.924;2023-02-14T04:19:45;101138.25;;;5.61;80.18
63500;BME280;49654;51.142;14.924;2023-02-14T04:22:13;101152.25;;;5.71;80.53
63500;BME280;49654;51.142;14.924;2023-02-14T04:24:42;101138.00;;;5.65;80.45
63500;BME280;49654;51.142;14.924;2023-02-14T04:27:09;101149.44;;;5.88;79.62
63500;BME280;49654;51.142;14.924;2023-02-14T04:29:38;101111.84;;;5.57;79.44
63500;BME280;49654;51.142;14.924;2023-02-14T04:32:07;101148.81;;;5.85;79.70
63500;BME280;49654;51.142;14.924;2023-02-14T04:34:35;101153.31;;;5.81;79.99
63500;BME280;49654;51.142;14.924;2023-02-14T04:37:03;101138.31;;;5.73;80.29
63500;BME280;49654;51.142;14.924;2023-02-14T04:39:31;101135.13;;;5.70;80.66
63500;BME280;49654;51.142;14.924;2023-02-14T04:42:00;101143.03;;;5.67;80.69
63500;BME280;49654;51.142;14.924;2023-02-14T04:44:27;101124.47;;;5.62;81.19
63500;BME280;49654;51.142;14.924;2023-02-14T04:46:55;101133.31;;;5.99;79.23
63500;BME280;49654;51.142;14.924;2023-02-14T04:49:22;101121.06;;;5.61;79.63
63500;BME280;49654;51.142;14.924;2023-02-14T04:51:49;101121.59;;;5.66;80.38
63500;BME280;49654;51.142;14.924;2023-02-14T04:54:16;101122.25;;;5.70;80.01
63500;BME280;49654;51.142;14.924;2023-02-14T04:56:43;101142.38;;;5.77;80.51
63500;BME280;49654;51.142;14.924;2023-02-14T04:59:12;101146.34;;;5.69;80.14
63500;BME280;49654;51.142;14.924;2023-02-14T05:01:40;101113.59;;;5.42;80.96
63500;BME280;49654;51.142;14.924;2023-02-14T05:04:07;101101.63;;;5.56;80.60
63500;BME280;49654;51.142;14.924;2023-02-14T05:06:35;101146.34;;;5.83;80.62
63500;BME280;49654;51.142;14.924;2023-02-14T05:09:02;101106.69;;;5.57;80.36
63500;BME280;49654;51.142;14.924;2023-02-14T05:11:32;101068.63;;;5.34;80.39
63500;BME280;49654;51.142;14.924;2023-02-14T05:13:59;101149.75;;;5.84;81.00
63500;BME280;49654;51.142;14.924;2023-02-14T05:16:27;101123.03;;;5.85;80.24
63500;BME280;49654;51.142;14.924;2023-02-14T05:18:55;101110.59;;;5.77;80.19
63500;BME280;49654;51.142;14.924;2023-02-14T05:21:22;101115.06;;;6.02;79.89
63500;BME280;49654;51.142;14.924;2023-02-14T05:23:49;101010.69;;;5.12;79.76
63500;BME280;49654;51.142;14.924;2023-02-14T05:26:16;101092.72;;;5.47;80.65
63500;BME280;49654;51.142;14.924;2023-02-14T05:28:43;101034.03;;;5.09;81.13
63500;BME280;49654;51.142;14.924;2023-02-14T05:31:10;101074.53;;;5.36;81.22
63500;BME280;49654;51.142;14.924;2023-02-14T05:33:38;101129.47;;;5.77;81.19
63500;BME280;49654;51.142;14.924;2023-02-14T05:36:06;101107.13;;;5.64;81.35
63500;BME280;49654;51.142;14.924;2023-02-14T05:38:33;101130.03;;;5.83;81.27
63500;BME280;49654;51.142;14.924;2023-02-14T05:41:00;101134.59;;;6.06;80.12
63500;BME280;49654;51.142;14.924;2023-02-14T05:43:28;101109.78;;;5.76;80.08
63500;BME280;49654;51.142;14.924;2023-02-14T05:45:56;101124.88;;;5.68;80.52
63500;BME280;49654;51.142;14.924;2023-02-14T05:48:23;101140.47;;;5.67;81.60
63500;BME280;49654;51.142;14.924;2023-02-14T05:50:51;101132.94;;;5.49;81.83
63500;BME280;49654;51.142;14.924;2023-02-14T05:53:18;101154.47;;;5.63;82.14
63500;BME280;49654;51.142;14.924;2023-02-14T05:55:46;101119.78;;;5.40;82.11
63500;BME280;49654;51.142;14.924;2023-02-14T05:58:13;101144.91;;;5.50;82.46
63500;BME280;49654;51.142;14.924;2023-02-14T06:00:40;101078.28;;;5.30;82.42
63500;BME280;49654;51.142;14.924;2023-02-14T06:03:07;101145.16;;;5.74;82.20
63500;BME280;49654;51.142;14.924;2023-02-14T06:05:34;101115.44;;;5.55;81.06
63500;BME280;49654;51.142;14.924;2023-02-14T06:08:03;101125.94;;;5.51;81.68
63500;BME280;49654;51.142;14.924;2023-02-14T06:10:30;101149.78;;;5.55;81.69
63500;BME280;49654;51.142;14.924;2023-02-14T06:12:57;101097.72;;;5.36;81.66
63500;BME280;49654;51.142;14.924;2023-02-14T06:15:25;101154.59;;;5.88;80.78
63500;BME280;49654;51.142;14.924;2023-02-14T06:17:52;101161.81;;;5.83;80.99
63500;BME280;49654;51.142;14.924;2023-02-14T06:20:20;101161.94;;;5.53;80.98
63500;BME280;49654;51.142;14.924;2023-02-14T06:22:49;101174.44;;;5.59;81.86
63500;BME280;49654;51.142;14.924;2023-02-14T06:25:18;101173.78;;;5.70;81.89
63500;BME280;49654;51.142;14.924;2023-02-14T06:27:45;101159.59;;;5.77;81.95
63500;BME280;49654;51.142;14.924;2023-02-14T06:30:14;101175.53;;;5.69;81.80
63500;BME280;49654;51.142;14.924;2023-02-14T06:32:41;101172.22;;;5.67;82.14
63500;BME280;49654;51.142;14.924;2023-02-14T06:35:08;101162.03;;;5.37;82.26
63500;BME280;49654;51.142;14.924;2023-02-14T06:37:35;101116.13;;;5.15;82.22
63500;BME280;49654;51.142;14.924;2023-02-14T06:40:06;101175.63;;;5.68;82.48
63500;BME280;49654;51.142;14.924;2023-02-14T06:42:35;101165.28;;;5.82;82.07
63500;BME280;49654;51.142;14.924;2023-02-14T06:45:04;101176.72;;;5.92;81.32
63500;BME280;49654;51.142;14.924;2023-02-14T06:47:32;101149.81;;;5.82;81.07
63500;BME280;49654;51.142;14.924;2023-02-14T06:49:59;101176.25;;;6.00;81.32
63500;BME280;49654;51.142;14.924;2023-02-14T06:52:26;101169.03;;;5.91;80.27
63500;BME280;49654;51.142;14.924;2023-02-14T06:54:53;101116.09;;;5.58;80.08
63500;BME280;49654;51.142;14.924;2023-02-14T06:57:20;101138.00;;;5.65;79.58
63500;BME280;49654;51.142;14.924;2023-02-14T06:59:48;101148.31;;;5.65;79.80
63500;BME280;49654;51.142;14.924;2023-02-14T07:02:16;101136.88;;;5.55;80.40
63500;BME280;49654;51.142;14.924;2023-02-14T07:04:42;101026.81;;;4.87;80.77
63500;BME280;49654;51.142;14.924;2023-02-14T07:07:09;101147.00;;;5.58;81.02
63500;BME280;49654;51.142;14.924;2023-02-14T07:09:36;101130.97;;;5.67;81.03
63500;BME280;49654;51.142;14.924;2023-02-14T07:12:04;101086.91;;;5.43;80.62
63500;BME280;49654;51.142;14.924;2023-02-14T07:14:31;101166.47;;;6.05;80.74
63500;BME280;49654;51.142;14.924;2023-02-14T07:16:59;101116.84;;;5.87;79.64
63500;BME280;49654;51.142;14.924;2023-02-14T07:19:27;101162.78;;;6.09;79.79
63500;BME280;49654;51.142;14.924;2023-02-14T07:21:54;101171.28;;;5.83;80.30
63500;BME280;49654;51.142;14.924;2023-02-14T07:24:21;101154.34;;;5.78;81.29
63500;BME280;49654;51.142;14.924;2023-02-14T07:26:48;101146.88;;;5.88;81.29
63500;BME280;49654;51.142;14.924;2023-02-14T07:29:15;101186.72;;;6.11;81.42
63500;BME280;49654;51.142;14.924;2023-02-14T07:31:42;101166.84;;;6.13;80.85
63500;BME280;49654;51.142;14.924;2023-02-14T07:34:10;101179.09;;;6.10;80.75
63500;BME280;49654;51.142;14.924;2023-02-14T07:36:37;101166.47;;;5.91;81.28
63500;BME280;49654;51.142;14.924;2023-02-14T07:39:05;101146.84;;;6.02;81.49
63500;BME280;49654;51.142;14.924;2023-02-14T07:41:32;101178.06;;;6.39;80.53
63500;BME280;49654;51.142;14.924;2023-02-14T07:43:59;101160.00;;;6.39;79.54
63500;BME280;49654;51.142;14.924;2023-02-14T07:46:26;101176.34;;;6.52;79.03
63500;BME280;49654;51.142;14.924;2023-02-14T07:48:53;101157.44;;;6.39;78.97
63500;BME280;49654;51.142;14.924;2023-02-14T07:51:21;101158.72;;;6.32;79.58
63500;BME280;49654;51.142;14.924;2023-02-14T07:53:49;101114.06;;;6.05;79.74
63500;BME280;49654;51.142;14.924;2023-02-14T07:56:16;101149.56;;;6.41;80.18
63500;BME280;49654;51.142;14.924;2023-02-14T07:58:43;101152.78;;;6.44;79.88
63500;BME280;49654;51.142;14.924;2023-02-14T08:01:11;101179.31;;;6.46;79.33
63500;BME280;49654;51.142;14.924;2023-02-14T08:03:38;101139.91;;;6.17;80.16
63500;BME280;49654;51.142;14.924;2023-02-14T08:06:05;101178.63;;;6.57;80.00
63500;BME280;49654;51.142;14.924;2023-02-14T08:08:33;101183.56;;;6.47;79.63
63500;BME280;49654;51.142;14.924;2023-02-14T08:11:01;101091.69;;;6.05;79.71
63500;BME280;49654;51.142;14.924;2023-02-14T08:13:28;101171.13;;;6.67;79.07
63500;BME280;49654;51.142;14.924;2023-02-14T08:15:55;101176.59;;;6.75;79.13
63500;BME280;49654;51.142;14.924;2023-02-14T08:18:35;101184.75;;;6.69;79.39
63500;BME280;49654;51.142;14.924;2023-02-14T08:21:04;101137.53;;;6.14;80.16
63500;BME280;49654;51.142;14.924;2023-02-14T08:23:36;101173.81;;;6.65;79.48
63500;BME280;49654;51.142;14.924;2023-02-14T08:26:03;101186.28;;;6.59;79.72
63500;BME280;49654;51.142;14.924;2023-02-14T08:28:30;101173.25;;;6.47;79.77
63500;BME280;49654;51.142;14.924;2023-02-14T08:30:59;101147.44;;;6.47;79.31
63500;BME280;49654;51.142;14.924;2023-02-14T08:33:26;101099.78;;;6.26;78.28
63500;BME280;49654;51.142;14.924;2023-02-14T08:35:53;101195.22;;;6.93;78.12
63500;BME280;49654;51.142;14.924;2023-02-14T08:38:21;101184.38;;;6.88;78.22
63500;BME280;49654;51.142;14.924;2023-02-14T08:40:49;101175.94;;;6.98;78.29
63500;BME280;49654;51.142;14.924;2023-02-14T08:43:16;101166.50;;;6.85;78.55
63500;BME280;49654;51.142;14.924;2023-02-14T08:45:43;101115.66;;;6.60;78.50
63500;BME280;49654;51.142;14.924;2023-02-14T08:48:11;101161.03;;;7.02;77.74
63500;BME280;49654;51.142;14.924;2023-02-14T08:50:39;101170.34;;;7.17;77.33
63500;BME280;49654;51.142;14.924;2023-02-14T08:53:06;101182.00;;;7.23;77.86
63500;BME280;49654;51.142;14.924;2023-02-14T08:55:34;101183.25;;;7.17;78.43
63500;BME280;49654;51.142;14.924;2023-02-14T08:58:03;101178.81;;;7.19;78.59
63500;BME280;49654;51.142;14.924;2023-02-14T09:00:32;101196.69;;;7.35;78.72
63500;BME280;49654;51.142;14.924;2023-02-14T09:02:59;101195.88;;;7.47;79.09
63500;BME280;49654;51.142;14.924;2023-02-14T09:05:26;101169.84;;;7.38;78.11
63500;BME280;49654;51.142;14.924;2023-02-14T09:07:54;101181.59;;;7.55;78.28
63500;BME280;49654;51.142;14.924;2023-02-14T09:10:22;101132.91;;;7.36;77.22
63500;BME280;49654;51.142;14.924;2023-02-14T09:12:49;101187.66;;;7.66;77.09
63500;BME280;49654;51.142;14.924;2023-02-14T09:15:18;101176.41;;;7.67;75.85
63500;BME280;49654;51.142;14.924;2023-02-14T09:17:45;101150.25;;;7.59;75.51
63500;BME280;49654;51.142;14.924;2023-02-14T09:20:14;101167.63;;;7.57;75.92
63500;BME280;49654;51.142;14.924;2023-02-14T09:22:41;101115.06;;;7.07;75.39
63500;BME280;49654;51.142;14.924;2023-02-14T09:25:09;101196.63;;;7.37;76.40
63500;BME280;49654;51.142;14.924;2023-02-14T09:27:36;101142.34;;;7.11;76.77
63500;BME280;49654;51.142;14.924;2023-02-14T09:30:04;101210.91;;;7.79;75.92
63500;BME280;49654;51.142;14.924;2023-02-14T09:32:32;101205.38;;;7.72;75.08
63500;BME280;49654;51.142;14.924;2023-02-14T09:35:00;101209.19;;;7.80;74.94
63500;BME280;49654;51.142;14.924;2023-02-14T09:37:27;101190.22;;;7.79;73.83
63500;BME280;49654;51.142;14.924;2023-02-14T09:39:55;101203.06;;;7.81;74.35
63500;BME280;49654;51.142;14.924;2023-02-14T09:42:35;101158.66;;;7.50;74.05
63500;BME280;49654;51.142;14.924;2023-02-14T09:45:07;101142.53;;;7.46;73.39
63500;BME280;49654;51.142;14.924;2023-02-14T09:47:42;101183.91;;;7.83;73.08
63500;BME280;49654;51.142;14.924;2023-02-14T09:50:16;101199.06;;;8.00;72.32
63500;BME280;49654;51.142;14.924;2023-02-14T09:52:48;101211.50;;;7.95;72.37
63500;BME280;49654;51.142;14.924;2023-02-14T09:55:17;101149.13;;;7.63;73.05
63500;BME280;49654;51.142;14.924;2023-02-14T09:57:54;101153.00;;;7.82;72.63
63500;BME280;49654;51.142;14.924;2023-02-14T10:00:28;101219.00;;;8.24;71.70
63500;BME280;49654;51.142;14.924;2023-02-14T10:03:13;101176.53;;;8.02;72.38
63500;BME280;49654;51.142;14.924;2023-02-14T10:05:45;101208.31;;;8.28;71.57
63500;BME280;49654;51.142;14.924;2023-02-14T10:08:28;101214.84;;;8.21;70.84
63500;BME280;49654;51.142;14.924;2023-02-14T10:11:02;101213.28;;;8.32;71.00
63500;BME280;49654;51.142;14.924;2023-02-14T10:13:35;101216.66;;;8.45;70.58
63500;BME280;49654;51.142;14.924;2023-02-14T10:16:20;101200.34;;;8.32;69.75
63500;BME280;49654;51.142;14.924;2023-02-14T10:18:53;101181.19;;;8.21;69.35
63500;BME280;49654;51.142;14.924;2023-02-14T10:21:26;101213.53;;;8.52;69.49
63500;BME280;49654;51.142;14.924;2023-02-14T10:23:59;101211.44;;;8.58;69.35
63500;BME280;49654;51.142;14.924;2023-02-14T10:26:34;101207.91;;;8.59;68.77
63500;BME280;49654;51.142;14.924;2023-02-14T10:29:05;101210.41;;;8.47;69.01
63500;BME280;49654;51.142;14.924;2023-02-14T10:31:37;101212.69;;;8.52;69.72
63500;BME280;49654;51.142;14.924;2023-02-14T10:34:14;101214.34;;;8.53;68.44
63500;BME280;49654;51.142;14.924;2023-02-14T10:36:49;101189.03;;;8.33;68.00
63500;BME280;49654;51.142;14.924;2023-02-14T10:39:35;101207.25;;;8.44;68.49
63500;BME280;49654;51.142;14.924;2023-02-14T10:42:12;101199.88;;;8.14;67.83
63500;BME280;49654;51.142;14.924;2023-02-14T10:44:46;101206.88;;;8.24;69.20
63500;BME280;49654;51.142;14.924;2023-02-14T10:47:27;101203.34;;;8.25;69.34
63500;BME280;49654;51.142;14.924;2023-02-14T10:50:05;101172.00;;;8.17;68.36
63500;BME280;49654;51.142;14.924;2023-02-14T10:52:39;101203.50;;;8.48;68.69
63500;BME280;49654;51.142;14.924;2023-02-14T10:55:14;101194.31;;;8.44;68.51
63500;BME280;49654;51.142;14.924;2023-02-14T10:57:47;101203.72;;;8.45;68.13
63500;BME280;49654;51.142;14.924;2023-02-14T11:00:19;101200.63;;;8.03;68.09
63500;BME280;49654;51.142;14.924;2023-02-14T11:02:50;101199.38;;;8.09;68.96
63500;BME280;49654;51.142;14.924;2023-02-14T11:05:25;101195.28;;;7.93;69.52
63500;BME280;49654;51.142;14.924;2023-02-14T11:07:53;101196.13;;;8.18;68.88
63500;BME280;49654;51.142;14.924;2023-02-14T11:10:25;101189.28;;;8.17;68.31
63500;BME280;49654;51.142;14.924;2023-02-14T11:12:54;101191.00;;;8.29;68.26
63500;BME280;49654;51.142;14.924;2023-02-14T11:15:25;101182.66;;;8.49;67.58
63500;BME280;49654;51.142;14.924;2023-02-14T11:18:08;101177.22;;;8.65;67.05
63500;BME280;49654;51.142;14.924;2023-02-14T11:20:37;101181.13;;;8.47;67.14
63500;BME280;49654;51.142;14.924;2023-02-14T11:23:17;101148.94;;;8.38;67.39
63500;BME280;49654;51.142;14.924;2023-02-14T11:25:49;101052.84;;;7.84;67.15
63500;BME280;49654;51.142;14.924;2023-02-14T11:28:17;101169.94;;;8.46;67.49
63500;BME280;49654;51.142;14.924;2023-02-14T11:30:47;101098.28;;;7.99;67.15
63500;BME280;49654;51.142;14.924;2023-02-14T11:33:28;101171.97;;;8.54;66.88
63500;BME280;49654;51.142;14.924;2023-02-14T11:35:58;101144.91;;;8.34;67.16
63500;BME280;49654;51.142;14.924;2023-02-14T11:38:27;101160.56;;;8.57;66.84
63500;BME280;49654;51.142;14.924;2023-02-14T11:40:57;101167.00;;;8.51;66.37
63500;BME280;49654;51.142;14.924;2023-02-14T11:43:32;101161.53;;;8.67;67.30
63500;BME280;49654;51.142;14.924;2023-02-14T11:46:06;101158.81;;;8.68;67.26
63500;BME280;49654;51.142;14.924;2023-02-14T11:48:33;101153.38;;;8.60;67.27
63500;BME280;49654;51.142;14.924;2023-02-14T11:51:04;101114.25;;;8.17;65.86
63500;BME280;49654;51.142;14.924;2023-02-14T11:53:39;101119.00;;;8.34;67.39
63500;BME280;49654;51.142;14.924;2023-02-14T11:56:10;101147.13;;;8.51;66.95
63500;BME280;49654;51.142;14.924;2023-02-14T11:58:39;101079.50;;;8.08;65.66
63500;BME280;49654;51.142;14.924;2023-02-14T12:01:11;101114.09;;;8.31;66.43
63500;BME280;49654;51.142;14.924;2023-02-14T12:03:44;101116.13;;;8.39;65.75
63500;BME280;49654;51.142;14.924;2023-02-14T12:06:22;101148.19;;;8.49;63.45
63500;BME280;49654;51.142;14.924;2023-02-14T12:08:50;101142.88;;;8.26;64.87
63500;BME280;49654;51.142;14.924;2023-02-14T12:11:19;101147.56;;;8.21;64.25
63500;BME280;49654;51.142;14.924;2023-02-14T12:13:51;101143.81;;;8.25;65.72
63500;BME280;49654;51.142;14.924;2023-02-14T12:16:22;101055.91;;;7.89;66.12
63500;BME280;49654;51.142;14.924;2023-02-14T12:18:55;101138.56;;;8.62;65.14
63500;BME280;49654;51.142;14.924;2023-02-14T12:21:39;101140.34;;;8.62;64.48
63500;BME280;49654;51.142;14.924;2023-02-14T12:24:16;101143.59;;;8.52;64.26
63500;BME280;49654;51.142;14.924;2023-02-14T12:26:48;101115.56;;;8.22;64.58
63500;BME280;49654;51.142;14.924;2023-02-14T12:29:21;101102.19;;;8.28;64.35
63500;BME280;49654;51.142;14.924;2023-02-14T12:31:51;101076.91;;;8.08;64.14
63500;BME280;49654;51.142;14.924;2023-02-14T12:34:19;101136.94;;;8.37;63.85
63500;BME280;49654;51.142;14.924;2023-02-14T12:37:07;101127.19;;;8.41;63.86
63500;BME280;49654;51.142;14.924;2023-02-14T12:39:47;101132.31;;;8.53;64.10
63500;BME280;49654;51.142;14.924;2023-02-14T12:42:32;101118.94;;;8.71;63.17
63500;BME280;49654;51.142;14.924;2023-02-14T12:45:08;101117.19;;;8.83;63.88
63500;BME280;49654;51.142;14.924;2023-02-14T12:47:43;101108.84;;;9.01;62.64
63500;BME280;49654;51.142;14.924;2023-02-14T12:50:22;101111.50;;;8.31;63.36
63500;BME280;49654;51.142;14.924;2023-02-14T12:53:08;101105.47;;;8.55;64.15
63500;BME280;49654;51.142;14.924;2023-02-14T12:55:46;101099.63;;;8.86;62.72
63500;BME280;49654;51.142;14.924;2023-02-14T12:58:27;101077.44;;;8.60;62.10
63500;BME280;49654;51.142;14.924;2023-02-14T13:01:04;101104.25;;;8.47;62.66
63500;BME280;49654;51.142;14.924;2023-02-14T13:03:51;101111.25;;;8.58;63.62
63500;BME280;49654;51.142;14.924;2023-02-14T13:06:27;101051.09;;;8.31;63.45
63500;BME280;49654;51.142;14.924;2023-02-14T13:09:12;101104.91;;;8.73;63.12
63500;BME280;49654;51.142;14.924;2023-02-14T13:11:53;101094.59;;;8.38;63.51
63500;BME280;49654;51.142;14.924;2023-02-14T13:14:40;101053.09;;;8.62;62.97
63500;BME280;49654;51.142;14.924;2023-02-14T13:17:16;101091.63;;;9.12;63.17
63500;BME280;49654;51.142;14.924;2023-02-14T13:19:52;101043.94;;;9.14;61.86